Weather observations for the past three days for
Watsonville, Watsonville Municipal Airport
Metric (Imperial)
Date Time (pdt) Wind (kph) Vis. (km) Weather Sky Cond. Temperature (ºC) Relative Humidity Wind Chill (°C) Heat Index (°C) Pressure Precipitation (cm)
Air Dwpt 6 hour altimeter (cm) sea level (mb) 1 hr 3 hr 6 hr
Max. Min.
02 01:53 NW 7 16.09 Overcast OVC009 14.4 12.2 87% 76.33 1017.6
02 00:53 Calm 16.09 Overcast OVC008 14.4 12.8 90% 76.33 1017.6
01 23:53 Calm 16.09 Overcast OVC006 14.4 12.8 90% 76.33 1017.5
01 22:53 Calm 16.09 Partly Cloudy SCT007 13.3 11.7 19.4 13.3 90% 76.35 1017.7
01 21:53 Calm 16.09 Fair CLR 14.4 12.2 87% 76.35 1017.8
01 20:53 Calm 16.09 Fair CLR 15 13.3 90% 76.33 1017.4
01 19:53 W 11 16.09 Fair CLR 15.6 13.3 86% 76.28 1016.8
01 18:53 SW 13 16.09 Fair CLR 16.7 13.9 84% 76.25 1016.6
01 17:53 W 22 16.09 Fair CLR 18.3 13.3 73% 76.25 1016.5
01 16:53 W 22 G 39 16.09 Fair CLR 19.4 12.8 21.1 17.8 66% 76.25 1016.6
01 15:53 SW 19 G 31 16.09 Fair CLR 20 10.6 55% 76.28 1016.7
01 14:53 W 19 16.09 Fair CLR 21.1 10 49% 76.28 1016.9
01 13:53 SW 19 G 30 16.09 Overcast OVC039 20 10.6 55% 76.3 1017.2
01 12:53 SW 24 16.09 Fair CLR 20 11.1 57% 76.33 1017.5
01 11:53 SW 13 16.09 Mostly Cloudy FEW026 BKN033 19.4 10 55% 76.33 1017.4
01 10:53 W 15 16.09 Overcast OVC032 17.8 11.7 18.9 14.4 68% 76.33 1017.4
01 09:53 Vrbl 6 16.09 Overcast OVC038 17.2 11.1 68% 76.3 1017.2
01 08:53 Calm 16.09 Overcast OVC037 16.7 11.1 70% 76.28 1016.7
01 07:53 Calm 16.09 Overcast OVC035 16.1 10.6 70% 76.25 1016.5
01 06:53 Calm 16.09 Overcast OVC032 14.4 10.6 78% 76.2 1015.7
01 05:53 Calm 16.09 Overcast OVC032 15 10.6 75% 76.15 1015.3
01 04:53 Calm 16.09 Overcast OVC033 15 10 15.6 15 72% 76.15 1015.1
01 03:53 W 7 16.09 Overcast OVC028 15.6 11.1 75% 76.15 1015.1
01 02:53 SW 7 14.48 Overcast FEW018 OVC027 15 12.2 83% 76.12 1014.9
01 01:53 Calm 16.09 Overcast BKN011 OVC022 15.6 12.8 84% 76.12 1014.7
01 00:53 Calm 16.09 Overcast OVC016 15.6 12.8 84% 76.12 1014.9
31 23:53 Calm 16.09 Overcast FEW012 OVC021 15.6 12.8 84% 76.12 1014.9
31 22:53 NE 6 16.09 Overcast OVC010 15.6 12.8 18.9 15 84% 76.12 1014.9
31 21:53 NE 7 16.09 Overcast OVC008 15.6 13.3 86% 76.12 1014.8
31 20:53 SE 7 16.09 A Few Clouds FEW010 15 12.8 87% 76.07 1014.2
31 19:53 S 9 16.09 A Few Clouds FEW012 15 12.2 83% 76.05 1013.8
31 18:53 SW 13 16.09 Overcast OVC010 16.1 13.3 84% 76.05 1013.9
31 17:53 SW 17 16.09 Partly Cloudy SCT011 17.2 13.3 78% 76.07 1014.0
31 16:53 W 19 G 35 16.09 Fair CLR 18.3 12.8 20 16.1 70% 76.05 1013.9
31 15:53 W 17 16.09 Fair CLR 18.9 12.2 65% 76.07 1014.2
31 14:53 W 20 16.09 A Few Clouds FEW021 19.4 12.2 63% 76.12 1014.7
31 13:53 SW 20 16.09 Overcast OVC020 18.9 12.2 65% 76.15 1015.1
31 12:53 SW 13 16.09 Overcast OVC022 17.8 11.7 68% 76.15 1015.3
31 11:53 SE 6 16.09 Overcast OVC021 17.8 10.6 63% 76.2 1015.7
31 10:53 Calm 16.09 Overcast OVC020 16.7 10.6 16.7 12.8 67% 76.2 1015.8
31 09:53 Vrbl 6 16.09 Overcast OVC018 15.6 11.1 75% 76.17 1015.5
31 08:53 W 7 16.09 Overcast OVC017 14.4 11.1 81% 76.15 1015.3
31 07:53 Calm 12.87 Overcast OVC012 13.3 11.7 90% 76.12 1015.0
31 06:53 W 6 16.09 Overcast OVC012 13.3 11.7 90% 76.07 1014.2
31 05:53 SW 6 9.66 Fog/Mist OVC008 13.3 12.2 93% 76.05 1013.9
31 04:53 Calm 16.09 Overcast OVC006 13.3 11.7 13.9 13.3 90% 76.05 1013.8
31 03:53 SW 6 12.87 Overcast OVC005 13.3 12.2 93% 76.05 1013.7
31 02:53 Calm 9.66 Fog/Mist OVC006 13.3 12.2 93% 76.05 1013.7
31 01:53 Calm 14.48 Overcast OVC006 13.3 11.7 90% 76.05 1013.7
31 00:53 Calm 16.09 Overcast OVC007 13.9 11.7 87% 76.05 1013.8
30 23:53 SW 6 16.09 Overcast OVC008 13.9 11.7 87% 76.05 1013.7
30 22:53 Calm 16.09 Overcast OVC008 13.9 12.2 18.9 13.9 90% 76.05 1013.9
30 21:53 SE 6 16.09 Overcast OVC009 14.4 12.2 87% 76.07 1014.2
30 20:53 Calm 16.09 Overcast OVC008 14.4 12.2 87% 76.05 1013.9
30 19:53 SW 7 16.09 Overcast OVC009 14.4 12.2 87% 76.02 1013.5
30 18:53 SW 17 16.09 Partly Cloudy SCT010 15.6 12.2 80% 76.02 1013.5
30 17:53 SW 20 16.09 Fair CLR 17.2 12.2 73% 76.02 1013.4
30 16:53 SW 15 16.09 Fair CLR 18.9 12.2 21.1 16.7 65% 76.02 1013.4
30 15:53 SW 11 16.09 Fair CLR 20 11.7 59% 76.02 1013.5
30 14:53 SW 13 16.09 Fair CLR 20.6 11.1 55% 76.07 1014.0
30 13:53 SW 17 G 28 16.09 Fair CLR 20.6 12.2 59% 76.12 1014.8
30 12:53 SW 13 16.09 Fair CLR 19.4 11.7 61% 76.15 1015.2
30 11:53 S 7 16.09 Fair CLR 18.3 11.7 66% 76.17 1015.6
30 09:53 Vrbl 6 16.09 Overcast OVC009 15 11.7 81% 76.2 1015.7
30 08:53 Calm 16.09 Overcast OVC007 13.9 11.7 87% 76.2 1015.7
30 07:53 Calm 11.27 Overcast OVC005 13.3 12.2 93% 76.2 1015.7
30 06:53 SE 6 12.87 Overcast OVC005 12.8 11.7 93% 76.17 1015.3
30 05:53 Vrbl 6 12.87 Overcast OVC005 13.3 11.7 90% 76.12 1014.9
30 04:53 Calm 14.48 Overcast OVC005 13.3 11.7 14.4 11.7 90% 76.12 1014.8
30 03:53 Calm 16.09 Overcast OVC007 12.8 11.1 90% 76.12 1014.7
30 02:53 N 6 16.09 Overcast OVC008 11.7 10 89% 76.1 1014.6
Date Time (pdt) Wind (kph) Vis. (km) Weather Sky Cond. Air Dwpt Max. Min. Relative Humidity Wind Chill (°C) Heat Index (°C) altimeter (cm) sea level (mb) 1 hr 3 hr 6 hr
6 hour
Temperature (ºC) Pressure Precipitation (cm)